Accueil
METAR-TAF:

METAR-TAF

Aéroports :

Base aérienne 701 Salon-de-Provence

Salon-de-Provence, France

latitude: 43-36N, longitude: 005-06E, altitude: 59 m

Observation

Le bulletin a été fait il y a 31 minutes, à 15:00 UTC
Vent 14 kt de nord/nord-ouest
Température 8°C
Humidité 61%
Pression 1014 hPa
Visibilité 10 km ou plus
pas de nuages en-dessous de 1500 mètres et pas de cumulonimbus.

METAR: LFMY 211500Z AUTO 34014KT CAVOK 08/01 Q1014 BECMG 34015G25KT

Heure: 16:31 (15:31 UTC)

Prévision

Le bulletin a été fait il y a 1 heure et 31 minutes, à 14:00 UTC
Prévision valable du 21 à 15 UTC au 22 à 15 UTC
Vent 15 kt de nord/nord-ouest avec des rafales jusqu'à 25 kt
Visibilité 10 km ou plus
pas de nuages en-dessous de 1500 mètres et pas de cumulonimbus.
Evoluant progressivement
du 22 à 03 UTC au 22 à 05 UTC
Vent 12 kt de nord/nord-ouest

TAF: LFMY 211400Z 2115/2215 34015G25KT CAVOK BECMG 2203/2205 34012KT

Observations et prévisions météorologiques de plus de 4000 aéroports (messages METAR et TAF).

Les stations disponibles sont représentées par des disques jaunes et rouges sur la carte.

Passer la souris dessus pour voir le nom de la station.

Cliquer dessus pour voir les observations et prévisions météorologiques.

Pour changer de carte: cliquez sur les boutons verts avec une croix noire pour zoomer, sur le bouton vert avec un tiret pour effectuer un zoom arrière, ou sur les flèches vertes pour les cartes adjacentes.


METAR-TAF: